createdAt,value
2023-05-04T00:00:14.795Z,100404.25
2023-05-04T00:01:18.019Z,100402.41
2023-05-04T00:02:20.443Z,100404.00
2023-05-04T00:03:23.132Z,100400.48
2023-05-04T00:04:25.606Z,100403.86
2023-05-04T00:05:27.804Z,100397.70
2023-05-04T00:06:30.235Z,100394.80
2023-05-04T00:07:32.571Z,100395.38
2023-05-04T00:08:34.920Z,100395.45
2023-05-04T00:09:37.340Z,100395.63
2023-05-04T00:10:39.791Z,100389.44
2023-05-04T00:11:42.008Z,100389.44
2023-05-04T00:12:46.164Z,100398.05
2023-05-04T00:13:48.494Z,100394.61
2023-05-04T00:14:50.958Z,100399.86
2023-05-04T00:15:53.286Z,100398.31
2023-05-04T00:16:55.782Z,100400.73
2023-05-04T00:17:57.947Z,100394.91
2023-05-04T00:19:00.657Z,100394.86
2023-05-04T00:20:04.430Z,100395.16
2023-05-04T00:21:07.431Z,100398.56
2023-05-04T00:22:09.547Z,100405.59
2023-05-04T00:23:11.745Z,100407.38
2023-05-04T00:24:13.945Z,100404.72
2023-05-04T00:25:16.155Z,100409.90
2023-05-04T00:26:18.468Z,100407.04
2023-05-04T00:27:20.985Z,100409.72
2023-05-04T00:28:23.714Z,100411.60
2023-05-04T00:29:26.001Z,100412.11
2023-05-04T00:30:29.277Z,100424.48
2023-05-04T00:31:31.719Z,100418.44
2023-05-04T00:32:34.431Z,100418.47
2023-05-04T00:33:36.925Z,100418.44
2023-05-04T00:34:39.225Z,100422.37
2023-05-04T00:35:41.378Z,100422.44
2023-05-04T00:36:43.783Z,100412.12
2023-05-04T00:37:46.339Z,100413.33
2023-05-04T00:38:50.688Z,100419.38
2023-05-04T00:39:52.962Z,100405.45
2023-05-04T00:40:58.322Z,100407.28
2023-05-04T00:42:01.190Z,100402.28
2023-05-04T00:43:03.355Z,100405.09
2023-05-04T00:44:05.901Z,100406.27
2023-05-04T00:45:09.018Z,100400.22
2023-05-04T00:46:11.892Z,100404.70
2023-05-04T00:47:16.238Z,100412.08
2023-05-04T00:48:18.872Z,100403.13
2023-05-04T00:49:21.330Z,100396.55
2023-05-04T00:50:25.679Z,100407.09
2023-05-04T00:51:29.626Z,100413.08
2023-05-04T00:52:32.189Z,100405.63
2023-05-04T00:53:36.417Z,100407.30
2023-05-04T00:54:39.228Z,100406.36
2023-05-04T00:55:41.409Z,100407.94
2023-05-04T00:56:46.497Z,100411.34
2023-05-04T00:57:50.181Z,100409.57
2023-05-04T00:58:53.858Z,100408.77
2023-05-04T00:59:56.529Z,100408.67
2023-05-04T01:01:00.159Z,100418.19
2023-05-04T01:02:02.736Z,100413.98
2023-05-04T01:03:06.295Z,100413.98
2023-05-04T01:04:11.064Z,100407.20
2023-05-04T01:05:13.983Z,100408.09
2023-05-04T01:06:38.192Z,100411.67
2023-05-04T01:07:53.270Z,100406.52
2023-05-04T01:09:11.549Z,100408.09
2023-05-04T01:10:35.924Z,100416.30
2023-05-04T01:12:02.592Z,100414.56
2023-05-04T01:13:08.698Z,100411.16
2023-05-04T01:14:14.015Z,100414.89
2023-05-04T01:15:17.589Z,100414.98
2023-05-04T01:16:20.629Z,100409.68
2023-05-04T01:17:24.119Z,100410.58
2023-05-04T01:18:26.496Z,100413.18
2023-05-04T01:19:29.066Z,100417.42
2023-05-04T01:20:32.262Z,100413.83
2023-05-04T01:21:36.311Z,100416.59
2023-05-04T01:22:38.804Z,100414.05
2023-05-04T01:23:41.315Z,100406.27
2023-05-04T01:24:43.757Z,100404.57
2023-05-04T01:25:58.595Z,100396.21
2023-05-04T01:28:19.316Z,100399.91
2023-05-04T01:30:44.974Z,100407.30
2023-05-04T01:33:55.946Z,100407.62
2023-05-04T01:34:59.707Z,100412.14
2023-05-04T01:36:02.337Z,100412.45
2023-05-04T01:43:19.745Z,100430.66
2023-05-04T01:44:22.074Z,100426.39
2023-05-04T01:45:26.440Z,100419.48
2023-05-04T01:46:29.206Z,100422.23
2023-05-04T01:47:31.658Z,100424.34
2023-05-04T01:48:35.233Z,100425.08
2023-05-04T01:49:37.745Z,100412.08
2023-05-04T01:50:40.691Z,100412.08
2023-05-04T01:51:45.926Z,100426.78
2023-05-04T01:52:48.330Z,100421.73
2023-05-04T01:53:51.041Z,100413.22
2023-05-04T01:54:53.423Z,100410.49
2023-05-04T01:55:55.644Z,100405.29
2023-05-04T01:56:58.046Z,100403.44
2023-05-04T01:58:00.230Z,100407.67
2023-05-04T01:59:02.924Z,100401.58
2023-05-04T02:00:06.951Z,100412.05
2023-05-04T02:01:18.011Z,100406.37
2023-05-04T02:02:20.952Z,100406.52
2023-05-04T02:03:23.431Z,100403.91
2023-05-04T02:04:26.134Z,100406.48
2023-05-04T02:05:28.426Z,100406.48
2023-05-04T02:06:32.515Z,100403.98
2023-05-04T02:07:34.807Z,100407.38
2023-05-04T02:08:38.417Z,100402.87
2023-05-04T02:09:41.090Z,100410.55
2023-05-04T02:10:43.444Z,100414.17
2023-05-04T02:11:45.967Z,100401.31
2023-05-04T02:12:48.243Z,100408.42
2023-05-04T02:13:50.633Z,100406.66
2023-05-04T02:14:52.978Z,100406.03
2023-05-04T02:15:55.757Z,100397.42
2023-05-04T02:16:58.265Z,100397.22
2023-05-04T02:18:00.857Z,100396.17
2023-05-04T02:19:03.215Z,100402.63
2023-05-04T02:20:07.302Z,100397.40
2023-05-04T02:21:10.436Z,100410.28
2023-05-04T02:22:12.736Z,100405.91
2023-05-04T02:23:15.397Z,100411.03
2023-05-04T02:24:17.981Z,100412.58
2023-05-04T02:25:20.484Z,100412.26
2023-05-04T02:26:22.810Z,100409.66
2023-05-04T02:27:25.353Z,100408.73
2023-05-04T02:28:27.660Z,100406.87
2023-05-04T02:29:29.780Z,100406.84
2023-05-04T02:30:32.200Z,100402.81
2023-05-04T02:31:34.868Z,100392.55
2023-05-04T02:32:38.269Z,100391.48
2023-05-04T02:33:41.130Z,100396.02
2023-05-04T02:34:44.010Z,100397.07
2023-05-04T02:35:46.875Z,100389.27
2023-05-04T02:36:49.766Z,100396.86
2023-05-04T02:37:52.363Z,100393.57
2023-05-04T02:38:55.481Z,100392.47
2023-05-04T02:39:57.571Z,100394.32
2023-05-04T02:41:00.014Z,100392.47
2023-05-04T02:42:02.639Z,100395.88
2023-05-04T02:43:05.396Z,100390.67
2023-05-04T02:44:09.567Z,100390.67
2023-05-04T02:45:12.416Z,100396.66
2023-05-04T02:46:14.904Z,100394.08
2023-05-04T02:47:17.513Z,100398.33
2023-05-04T02:48:20.164Z,100398.38
2023-05-04T02:49:22.475Z,100402.81
2023-05-04T02:50:26.570Z,100399.31
2023-05-04T02:51:28.697Z,100396.08
2023-05-04T02:52:31.989Z,100395.91
2023-05-04T02:53:35.265Z,100396.08
2023-05-04T02:54:38.629Z,100397.07
2023-05-04T02:55:41.809Z,100391.99
2023-05-04T02:56:44.267Z,100382.42
2023-05-04T02:57:46.685Z,100387.56
2023-05-04T02:58:48.831Z,100384.01
2023-05-04T02:59:51.367Z,100381.47
2023-05-04T03:00:57.339Z,100392.28
2023-05-04T03:02:00.482Z,100392.28
2023-05-04T03:03:02.905Z,100394.83
2023-05-04T03:04:06.980Z,100385.16
2023-05-04T03:05:09.912Z,100386.87
2023-05-04T03:06:13.963Z,100385.31
2023-05-04T03:07:16.508Z,100388.63
2023-05-04T03:08:18.715Z,100391.11
2023-05-04T03:09:20.994Z,100389.47
2023-05-04T03:10:24.414Z,100392.13
2023-05-04T03:11:26.987Z,100388.66
2023-05-04T03:12:29.527Z,100392.97
2023-05-04T03:13:31.714Z,100393.56
2023-05-04T03:14:33.937Z,100393.34
2023-05-04T03:15:36.360Z,100389.75
2023-05-04T03:16:38.940Z,100400.16
2023-05-04T03:17:41.425Z,100390.67
2023-05-04T03:18:44.049Z,100394.98
2023-05-04T03:19:46.515Z,100394.98
2023-05-04T03:20:48.833Z,100400.16
2023-05-04T03:21:52.978Z,100398.45
2023-05-04T03:22:55.302Z,100409.60
2023-05-04T03:23:59.909Z,100406.72
2023-05-04T03:25:03.694Z,100411.48
2023-05-04T03:26:06.337Z,100411.16
2023-05-04T03:27:08.469Z,100412.86
2023-05-04T03:28:11.495Z,100406.75
2023-05-04T03:29:13.593Z,100405.72
2023-05-04T03:30:16.449Z,100413.09
2023-05-04T03:31:20.169Z,100404.70
2023-05-04T03:32:25.736Z,100403.64
2023-05-04T03:33:28.114Z,100398.69
2023-05-04T03:34:31.846Z,100399.72
2023-05-04T03:35:36.544Z,100399.22
2023-05-04T03:36:39.212Z,100387.82
2023-05-04T03:37:41.455Z,100392.13
2023-05-04T03:38:44.994Z,100404.11
2023-05-04T03:39:47.819Z,100403.31
2023-05-04T03:40:50.209Z,100402.47
2023-05-04T03:41:52.542Z,100396.53
2023-05-04T03:42:57.792Z,100396.53
2023-05-04T03:44:00.869Z,100397.17
2023-05-04T03:45:04.454Z,100393.32
2023-05-04T03:46:09.329Z,100379.34
2023-05-04T03:47:11.841Z,100375.20
2023-05-04T03:48:15.171Z,100373.46
2023-05-04T03:49:18.506Z,100371.53
2023-05-04T03:50:21.677Z,100368.77
2023-05-04T03:51:24.453Z,100372.41
2023-05-04T03:52:26.796Z,100369.50
2023-05-04T03:53:29.225Z,100371.97
2023-05-04T03:54:32.909Z,100366.33
2023-05-04T03:55:35.955Z,100366.33
2023-05-04T03:56:38.438Z,100388.83
2023-05-04T03:57:41.325Z,100389.50
2023-05-04T03:58:44.108Z,100386.61
2023-05-04T03:59:48.280Z,100396.72
2023-05-04T04:00:51.798Z,100398.19
2023-05-04T04:01:54.210Z,100386.86
2023-05-04T04:02:56.452Z,100391.92
2023-05-04T04:03:58.882Z,100395.58
2023-05-04T04:05:01.124Z,100388.17
2023-05-04T04:06:07.255Z,100395.33
2023-05-04T04:07:09.580Z,100387.98
2023-05-04T04:08:13.610Z,100391.98
2023-05-04T04:09:15.796Z,100389.19
2023-05-04T04:10:18.228Z,100394.19
2023-05-04T04:11:21.758Z,100398.78
2023-05-04T04:12:24.849Z,100396.03
2023-05-04T04:13:27.420Z,100388.72
2023-05-04T04:14:30.486Z,100396.47
2023-05-04T04:15:33.332Z,100393.68
2023-05-04T04:16:35.935Z,100396.75
2023-05-04T04:17:38.393Z,100396.35
2023-05-04T04:18:41.029Z,100395.38
2023-05-04T04:19:43.370Z,100403.99
2023-05-04T04:20:46.110Z,100401.84
2023-05-04T04:21:48.792Z,100404.20
2023-05-04T04:22:51.351Z,100405.52
2023-05-04T04:23:54.640Z,100404.20
2023-05-04T04:24:56.812Z,100411.76
2023-05-04T04:25:59.330Z,100409.83
2023-05-04T04:27:03.238Z,100417.39
2023-05-04T04:28:05.627Z,100411.76
2023-05-04T04:29:09.076Z,100403.42
2023-05-04T04:30:12.896Z,100405.88
2023-05-04T04:31:15.395Z,100405.61
2023-05-04T04:32:17.709Z,100405.09
2023-05-04T04:33:20.826Z,100402.20
2023-05-04T04:34:23.753Z,100397.53
2023-05-04T04:35:27.019Z,100406.27
2023-05-04T04:36:29.793Z,100402.36
2023-05-04T04:37:33.104Z,100405.88
2023-05-04T04:38:37.179Z,100397.13
2023-05-04T04:39:39.392Z,100401.97
2023-05-04T04:40:43.356Z,100407.03
2023-05-04T04:41:46.214Z,100405.77
2023-05-04T04:42:48.489Z,100416.92
2023-05-04T04:43:50.728Z,100417.48
2023-05-04T04:44:53.919Z,100419.97
2023-05-04T04:45:56.447Z,100415.58
2023-05-04T04:46:58.973Z,100420.60
2023-05-04T04:48:03.497Z,100422.94
2023-05-04T04:49:06.708Z,100420.68
2023-05-04T04:50:10.626Z,100414.47
2023-05-04T04:51:12.944Z,100421.04
2023-05-04T04:52:15.647Z,100422.42
2023-05-04T04:53:18.398Z,100422.30
2023-05-04T04:54:20.619Z,100417.44
2023-05-04T04:55:24.717Z,100416.24
2023-05-04T04:56:27.497Z,100417.38
2023-05-04T04:57:32.549Z,100417.80
2023-05-04T04:58:34.968Z,100418.79
2023-05-04T04:59:38.054Z,100421.69
2023-05-04T05:00:40.635Z,100420.78
2023-05-04T05:01:42.931Z,100414.84
2023-05-04T05:02:45.988Z,100413.69
2023-05-04T05:03:49.497Z,100416.04
2023-05-04T05:04:52.182Z,100413.83
2023-05-04T05:05:55.196Z,100423.01
2023-05-04T05:06:58.348Z,100419.91
2023-05-04T05:08:01.031Z,100427.16
2023-05-04T05:09:03.338Z,100432.89
2023-05-04T05:10:08.003Z,100424.59
2023-05-04T05:11:10.982Z,100438.16
2023-05-04T05:12:13.266Z,100428.10
2023-05-04T05:13:15.754Z,100426.97
2023-05-04T05:14:18.098Z,100433.60
2023-05-04T05:15:20.620Z,100426.07
2023-05-04T05:16:23.276Z,100428.24
2023-05-04T05:17:26.217Z,100437.80
2023-05-04T05:18:28.832Z,100435.62
2023-05-04T05:19:32.760Z,100432.09
2023-05-04T05:20:35.609Z,100434.65
2023-05-04T05:21:38.204Z,100441.94
2023-05-04T05:22:40.975Z,100433.09
2023-05-04T05:23:43.528Z,100426.40
2023-05-04T05:24:46.382Z,100426.78
2023-05-04T05:25:48.670Z,100426.92
2023-05-04T05:26:52.481Z,100424.94
2023-05-04T05:27:54.710Z,100429.00
2023-05-04T05:28:57.050Z,100427.94
2023-05-04T05:29:59.682Z,100434.38
2023-05-04T05:31:02.060Z,100433.34
2023-05-04T05:32:06.237Z,100431.33
2023-05-04T05:33:08.499Z,100429.55
2023-05-04T05:34:11.258Z,100428.24
2023-05-04T05:35:13.530Z,100430.86
2023-05-04T05:36:15.940Z,100427.73
2023-05-04T05:37:18.179Z,100431.58
2023-05-04T05:38:21.011Z,100428.48
2023-05-04T05:39:23.480Z,100433.17
2023-05-04T05:40:25.910Z,100432.02
2023-05-04T05:41:28.151Z,100436.70
2023-05-04T05:42:30.766Z,100429.20
2023-05-04T05:43:33.021Z,100438.19
2023-05-04T05:44:36.837Z,100437.53
2023-05-04T05:45:39.120Z,100437.02
2023-05-04T05:46:41.580Z,100436.37
2023-05-04T05:47:43.972Z,100433.99
2023-05-04T05:48:46.855Z,100432.63
2023-05-04T05:49:49.045Z,100434.07
2023-05-04T05:50:51.682Z,100431.10
2023-05-04T05:51:53.810Z,100432.80
2023-05-04T05:52:56.121Z,100429.92
2023-05-04T05:53:58.475Z,100420.13
2023-05-04T05:55:02.691Z,100420.26
2023-05-04T05:56:06.001Z,100423.08
2023-05-04T05:57:08.063Z,100417.98
2023-05-04T05:58:10.527Z,100417.41
2023-05-04T05:59:12.835Z,100420.11
2023-05-04T06:00:16.990Z,100415.55
2023-05-04T06:01:19.602Z,100423.16
2023-05-04T06:02:22.034Z,100421.70
2023-05-04T06:03:24.696Z,100426.45
2023-05-04T06:04:28.176Z,100426.45
2023-05-04T06:05:31.536Z,100427.20
2023-05-04T06:06:34.119Z,100426.36
2023-05-04T06:07:36.835Z,100425.34
2023-05-04T06:08:40.055Z,100426.27
2023-05-04T06:09:42.346Z,100421.70
2023-05-04T06:10:45.054Z,100424.18
2023-05-04T06:11:47.579Z,100409.38
2023-05-04T06:12:50.457Z,100420.25
2023-05-04T06:13:53.351Z,100409.18
2023-05-04T06:14:55.560Z,100412.39
2023-05-04T06:15:57.861Z,100413.16
2023-05-04T06:17:01.505Z,100412.15
2023-05-04T06:18:03.854Z,100407.77
2023-05-04T06:19:06.994Z,100404.81
2023-05-04T06:20:11.846Z,100412.34
2023-05-04T06:21:14.194Z,100402.34
2023-05-04T06:22:16.821Z,100405.40
2023-05-04T06:23:18.941Z,100402.34
2023-05-04T06:24:22.231Z,100409.27
2023-05-04T06:25:24.439Z,100407.66
2023-05-04T06:26:26.917Z,100408.11
2023-05-04T06:27:31.046Z,100410.12
2023-05-04T06:28:34.773Z,100413.02
2023-05-04T06:29:38.857Z,100403.70
2023-05-04T06:30:41.109Z,100405.05
2023-05-04T06:31:47.472Z,100404.03
2023-05-04T06:32:50.227Z,100400.67
2023-05-04T06:33:52.649Z,100401.67
2023-05-04T06:34:55.269Z,100399.47
2023-05-04T06:35:58.320Z,100402.70
2023-05-04T06:37:00.780Z,100402.70
2023-05-04T06:38:03.599Z,100407.75
2023-05-04T06:39:05.974Z,100408.16
2023-05-04T06:40:09.800Z,100400.80
2023-05-04T06:41:12.308Z,100397.72
2023-05-04T06:42:14.745Z,100409.55
2023-05-04T06:43:18.430Z,100396.59
2023-05-04T06:44:21.176Z,100398.79
2023-05-04T06:45:24.117Z,100401.88
2023-05-04T06:46:27.823Z,100394.60
2023-05-04T06:47:30.430Z,100395.27
2023-05-04T06:48:33.774Z,100392.34
2023-05-04T06:49:36.202Z,100398.83
2023-05-04T06:50:39.291Z,100394.14
2023-05-04T06:51:41.564Z,100405.20
2023-05-04T06:52:44.730Z,100397.88
2023-05-04T06:53:47.094Z,100393.30
2023-05-04T06:54:49.317Z,100395.85
2023-05-04T06:55:52.021Z,100398.38
2023-05-04T06:56:55.648Z,100396.77
2023-05-04T06:57:58.048Z,100395.60
2023-05-04T06:59:00.373Z,100396.63
2023-05-04T07:00:04.067Z,100395.80
2023-05-04T07:01:08.668Z,100399.66
2023-05-04T07:02:11.334Z,100398.45
2023-05-04T07:03:13.614Z,100393.67
2023-05-04T07:04:16.965Z,100395.56
2023-05-04T07:05:21.928Z,100393.30
2023-05-04T07:07:37.009Z,100388.41
2023-05-04T07:08:39.219Z,100390.84
2023-05-04T07:09:43.018Z,100395.90
2023-05-04T07:10:45.772Z,100388.55
2023-05-04T07:11:49.090Z,100385.77
2023-05-04T07:12:51.395Z,100387.83
2023-05-04T07:13:53.590Z,100393.30
2023-05-04T07:14:56.230Z,100389.08
2023-05-04T07:15:58.403Z,100397.42
2023-05-04T07:17:00.959Z,100397.42
2023-05-04T07:18:03.800Z,100388.05
2023-05-04T07:19:06.491Z,100392.75
2023-05-04T07:20:10.658Z,100390.30
2023-05-04T07:21:26.755Z,100388.99
2023-05-04T07:22:17.971Z,100393.87
2023-05-04T07:23:20.422Z,100389.37
2023-05-04T07:24:22.761Z,100391.44
2023-05-04T07:25:25.593Z,100392.56
2023-05-04T07:26:27.971Z,100397.98
2023-05-04T07:27:30.819Z,100387.97
2023-05-04T07:28:33.196Z,100396.69
2023-05-04T07:29:35.945Z,100399.31
2023-05-04T07:30:39.528Z,100403.23
2023-05-04T07:31:41.858Z,100406.23
2023-05-04T07:32:44.180Z,100408.77
2023-05-04T07:33:47.367Z,100402.68
2023-05-04T07:34:49.628Z,100405.70
2023-05-04T07:35:58.680Z,100398.62
2023-05-04T07:37:02.885Z,100403.88
2023-05-04T07:38:05.049Z,100403.51
2023-05-04T07:39:08.328Z,100395.36
2023-05-04T07:40:14.807Z,100396.66
2023-05-04T07:41:17.783Z,100390.31
2023-05-04T07:42:24.667Z,100397.59
2023-05-04T07:43:27.927Z,100399.86
2023-05-04T07:44:32.569Z,100400.85
2023-05-04T07:45:36.230Z,100407.73
2023-05-04T07:46:38.915Z,100403.61
2023-05-04T07:47:41.588Z,100406.60
2023-05-04T07:48:43.907Z,100399.55
2023-05-04T07:49:48.826Z,100401.72
2023-05-04T07:50:51.344Z,100407.93
2023-05-04T07:51:54.209Z,100397.55
2023-05-04T07:52:57.424Z,100403.92
2023-05-04T07:54:00.698Z,100397.25
2023-05-04T07:55:04.654Z,100403.92
2023-05-04T07:56:12.278Z,100402.33
2023-05-04T07:57:15.179Z,100405.33
2023-05-04T07:58:17.634Z,100399.33
2023-05-04T07:59:21.149Z,100404.86
2023-05-04T08:00:23.759Z,100407.98
2023-05-04T08:01:26.734Z,100405.16
2023-05-04T08:02:29.172Z,100415.84
2023-05-04T08:03:33.099Z,100411.72
2023-05-04T08:04:36.405Z,100402.11
2023-05-04T08:05:39.020Z,100406.98
2023-05-04T08:06:41.886Z,100400.27
2023-05-04T08:07:48.330Z,100399.05
2023-05-04T08:08:52.774Z,100400.52
2023-05-04T08:09:56.368Z,100399.94
2023-05-04T08:11:12.030Z,100400.34
2023-05-04T08:12:04.606Z,100400.98
2023-05-04T08:13:08.005Z,100394.67
2023-05-04T08:14:11.118Z,100397.66
2023-05-04T08:15:14.120Z,100399.87
2023-05-04T08:16:16.713Z,100392.59
2023-05-04T08:17:19.176Z,100393.34
2023-05-04T08:18:21.378Z,100395.56
2023-05-04T08:19:25.267Z,100392.31
2023-05-04T08:20:27.952Z,100393.78
2023-05-04T08:21:31.226Z,100392.74
2023-05-04T08:22:33.835Z,100392.12
2023-05-04T08:23:36.063Z,100387.67
2023-05-04T08:24:38.289Z,100387.36
2023-05-04T08:25:40.568Z,100391.75
2023-05-04T08:26:45.341Z,100389.92
2023-05-04T08:27:47.454Z,100389.48
2023-05-04T08:28:50.699Z,100392.42
2023-05-04T08:29:52.985Z,100390.28
2023-05-04T08:30:56.891Z,100386.98
2023-05-04T08:31:59.406Z,100391.60
2023-05-04T08:33:01.926Z,100396.31
2023-05-04T08:34:05.119Z,100397.17
2023-05-04T08:35:08.632Z,100389.50
2023-05-04T08:36:12.404Z,100394.56
2023-05-04T08:37:15.302Z,100399.63
2023-05-04T08:38:18.016Z,100394.16
2023-05-04T08:39:20.464Z,100389.28
2023-05-04T08:40:23.717Z,100391.16
2023-05-04T08:41:26.379Z,100386.84
2023-05-04T08:42:32.613Z,100386.37
2023-05-04T08:43:37.970Z,100391.10
2023-05-04T08:44:43.300Z,100388.10
2023-05-04T08:45:45.531Z,100382.12
2023-05-04T08:46:49.896Z,100390.02
2023-05-04T08:47:52.974Z,100385.69
2023-05-04T08:48:55.586Z,100380.70
2023-05-04T08:49:58.369Z,100390.23
2023-05-04T08:51:02.429Z,100381.97
2023-05-04T08:52:07.981Z,100376.06
2023-05-04T08:53:13.179Z,100381.88
2023-05-04T08:54:16.772Z,100373.66
2023-05-04T08:55:20.000Z,100373.53
2023-05-04T08:56:25.137Z,100369.70
2023-05-04T08:57:28.113Z,100368.62
2023-05-04T08:58:31.382Z,100364.14
2023-05-04T08:59:35.920Z,100368.30
2023-05-04T09:00:38.894Z,100369.08
2023-05-04T09:01:41.636Z,100365.03
2023-05-04T09:02:45.512Z,100361.04
2023-05-04T09:03:50.172Z,100358.28
2023-05-04T09:04:53.261Z,100368.16
2023-05-04T09:05:57.461Z,100361.99
2023-05-04T09:07:00.471Z,100366.59
2023-05-04T09:08:02.742Z,100369.72
2023-05-04T09:09:06.252Z,100373.59
2023-05-04T09:10:10.571Z,100367.08
2023-05-04T09:11:13.637Z,100370.20
2023-05-04T09:12:16.913Z,100369.54
2023-05-04T09:13:18.984Z,100364.42
2023-05-04T09:14:23.115Z,100357.17
2023-05-04T09:15:26.595Z,100366.81
2023-05-04T09:16:38.335Z,100365.83
2023-05-04T09:17:50.880Z,100367.56
2023-05-04T09:18:47.283Z,100361.55
2023-05-04T09:20:01.578Z,100363.19
2023-05-04T09:21:04.696Z,100371.10
2023-05-04T09:22:17.699Z,100371.27
2023-05-04T09:23:21.821Z,100369.13
2023-05-04T09:24:29.164Z,100375.31
2023-05-04T09:25:32.627Z,100373.05
2023-05-04T09:26:35.524Z,100366.36
2023-05-04T09:27:39.829Z,100373.97
2023-05-04T09:28:43.038Z,100371.64
2023-05-04T09:29:49.921Z,100369.54
2023-05-04T09:30:55.800Z,100375.69
2023-05-04T09:31:58.268Z,100370.66
2023-05-04T09:33:01.616Z,100370.41
2023-05-04T09:34:10.409Z,100369.37
2023-05-04T09:35:25.355Z,100372.39
2023-05-04T09:36:20.496Z,100369.70
2023-05-04T09:37:23.903Z,100362.89
2023-05-04T09:38:33.570Z,100366.48
2023-05-04T09:39:35.869Z,100364.36
2023-05-04T09:40:40.947Z,100367.20
2023-05-04T09:41:44.331Z,100359.42
2023-05-04T09:42:50.228Z,100365.80
2023-05-04T09:43:52.688Z,100359.44
2023-05-04T09:45:04.449Z,100365.59
2023-05-04T09:46:09.729Z,100358.73
2023-05-04T09:47:12.285Z,100357.56
2023-05-04T09:48:19.683Z,100346.83
2023-05-04T09:49:37.453Z,100346.83
2023-05-04T09:50:39.889Z,100356.80
2023-05-04T09:51:42.607Z,100357.27
2023-05-04T09:52:46.432Z,100353.89
2023-05-04T09:53:50.087Z,100347.43
2023-05-04T09:54:54.018Z,100353.93
2023-05-04T09:56:19.753Z,100353.45
2023-05-04T09:57:23.024Z,100360.68
2023-05-04T09:58:25.708Z,100356.45
2023-05-04T09:59:31.251Z,100351.16
2023-05-04T10:00:35.621Z,100351.97
2023-05-04T10:01:37.867Z,100355.58
2023-05-04T10:02:40.869Z,100353.67
2023-05-04T10:03:43.868Z,100354.41
2023-05-04T10:04:47.521Z,100350.08
2023-05-04T10:05:52.102Z,100355.70
2023-05-04T10:06:55.386Z,100355.83
2023-05-04T10:08:00.154Z,100346.69
2023-05-04T10:09:04.424Z,100349.98
2023-05-04T10:10:08.010Z,100349.41
2023-05-04T10:11:12.030Z,100346.91
2023-05-04T10:12:14.383Z,100342.22
2023-05-04T10:13:17.840Z,100343.45
2023-05-04T10:14:20.141Z,100342.07
2023-05-04T10:15:25.475Z,100337.62
2023-05-04T10:16:53.639Z,100334.80
2023-05-04T10:19:37.106Z,100337.55
2023-05-04T10:20:59.072Z,100328.42
2023-05-04T10:22:22.620Z,100333.75
2023-05-04T10:23:40.840Z,100330.84
2023-05-04T10:25:01.291Z,100327.55
2023-05-04T10:26:30.321Z,100321.47
2023-05-04T10:27:57.275Z,100316.84
2023-05-04T10:29:29.235Z,100320.75
2023-05-04T10:30:32.092Z,100328.46
2023-05-04T10:31:40.398Z,100320.91
2023-05-04T10:32:43.236Z,100321.42
2023-05-04T10:33:45.920Z,100323.42
2023-05-04T10:34:49.484Z,100320.05
2023-05-04T10:35:55.779Z,100319.64
2023-05-04T10:37:01.160Z,100321.92
2023-05-04T10:38:04.181Z,100315.89
2023-05-04T10:39:19.875Z,100315.38
2023-05-04T10:40:39.424Z,100321.58
2023-05-04T10:41:41.725Z,100311.58
2023-05-04T10:42:45.356Z,100314.23
2023-05-04T10:43:52.544Z,100315.84
2023-05-04T10:44:57.600Z,100312.60
2023-05-04T10:46:01.741Z,100311.50
2023-05-04T10:47:06.643Z,100312.20
2023-05-04T10:48:10.484Z,100310.94
2023-05-04T10:49:17.295Z,100313.27
2023-05-04T10:50:19.719Z,100308.17
2023-05-04T10:51:32.611Z,100310.40
2023-05-04T10:52:32.160Z,100310.81
2023-05-04T10:53:35.106Z,100309.44
2023-05-04T10:54:38.645Z,100308.33
2023-05-04T10:55:45.952Z,100314.55
2023-05-04T10:56:48.852Z,100308.19
2023-05-04T10:57:56.167Z,100308.02
2023-05-04T10:59:02.070Z,100310.95
2023-05-04T11:00:06.588Z,100306.94
2023-05-04T11:01:12.475Z,100307.08
2023-05-04T11:02:19.567Z,100304.55
2023-05-04T11:03:24.330Z,100306.08
2023-05-04T11:04:28.249Z,100295.77
2023-05-04T11:05:46.322Z,100302.61
2023-05-04T11:08:16.443Z,100303.38
2023-05-04T11:09:19.729Z,100295.00
2023-05-04T11:10:26.605Z,100296.97
2023-05-04T11:11:29.061Z,100296.42
2023-05-04T11:12:32.225Z,100298.11
2023-05-04T11:13:37.148Z,100298.25
2023-05-04T11:14:42.448Z,100294.36
2023-05-04T11:15:50.875Z,100288.95
2023-05-04T11:16:55.742Z,100294.00
2023-05-04T11:17:58.398Z,100293.17
2023-05-04T11:19:09.516Z,100285.30
2023-05-04T11:20:20.507Z,100288.47
2023-05-04T11:21:25.474Z,100289.81
2023-05-04T11:22:28.755Z,100292.95
2023-05-04T11:23:32.753Z,100298.65
2023-05-04T11:24:43.435Z,100284.91
2023-05-04T11:25:47.840Z,100284.43
2023-05-04T11:26:50.562Z,100284.68
2023-05-04T11:27:53.433Z,100290.88
2023-05-04T11:28:55.845Z,100284.98
2023-05-04T11:30:00.848Z,100280.28
2023-05-04T11:31:17.731Z,100283.53
2023-05-04T11:32:20.176Z,100277.43
2023-05-04T11:33:22.963Z,100282.73
2023-05-04T11:34:25.296Z,100279.22
2023-05-04T11:35:27.707Z,100274.27
2023-05-04T11:36:30.477Z,100282.83
2023-05-04T11:37:41.332Z,100260.21
2023-05-04T11:38:45.017Z,100260.21
2023-05-04T11:39:47.858Z,100275.95
2023-05-04T11:40:51.837Z,100274.27
2023-05-04T11:41:54.144Z,100273.30
2023-05-04T11:42:58.807Z,100273.02
2023-05-04T11:44:03.461Z,100264.30
2023-05-04T11:46:28.696Z,100259.69
2023-05-04T11:47:31.231Z,100258.02
2023-05-04T11:48:34.988Z,100255.67
2023-05-04T11:49:37.960Z,100251.48
2023-05-04T11:50:41.145Z,100250.05
2023-05-04T11:51:43.428Z,100250.05
2023-05-04T11:52:47.097Z,100254.84
2023-05-04T11:53:49.285Z,100250.09
2023-05-04T11:54:57.362Z,100249.80
2023-05-04T11:56:03.190Z,100243.61
2023-05-04T11:57:05.548Z,100237.25
2023-05-04T11:58:09.918Z,100240.24
2023-05-04T11:59:12.144Z,100242.61
2023-05-04T12:00:15.404Z,100239.10
2023-05-04T12:01:17.601Z,100237.31
2023-05-04T12:02:23.502Z,100239.63
2023-05-04T12:03:39.754Z,100236.65
2023-05-04T12:04:35.002Z,100231.25
2023-05-04T12:05:38.456Z,100227.45
2023-05-04T12:06:40.888Z,100226.50
2023-05-04T12:07:43.192Z,100221.52
2023-05-04T12:08:45.568Z,100226.00
2023-05-04T12:09:49.370Z,100227.48
2023-05-04T12:11:21.421Z,100218.94
2023-05-04T12:12:28.330Z,100223.34
2023-05-04T12:13:30.858Z,100225.67
2023-05-04T12:14:33.118Z,100219.32
2023-05-04T12:15:36.629Z,100219.84
2023-05-04T12:16:41.047Z,100220.56
2023-05-04T12:17:43.727Z,100219.65
2023-05-04T12:18:49.090Z,100208.91
2023-05-04T12:21:17.840Z,100210.45
2023-05-04T12:22:32.158Z,100208.33
2023-05-04T12:23:36.087Z,100212.87
2023-05-04T12:24:39.278Z,100207.51
2023-05-04T12:25:54.791Z,100219.41
2023-05-04T12:26:45.704Z,100216.63
2023-05-04T12:27:48.077Z,100214.00